sensor_id;sensor_type;location;lat;lon;timestamp;P1;durP1;ratioP1;P2;durP2;ratioP2
2766;SDS011;1391;46.742;11.636;2022-10-16T00:01:19;16.57;;;10.30;;
2766;SDS011;1391;46.742;11.636;2022-10-16T00:03:49;19.97;;;9.83;;
2766;SDS011;1391;46.742;11.636;2022-10-16T00:06:19;12.93;;;9.93;;
2766;SDS011;1391;46.742;11.636;2022-10-16T00:08:48;15.27;;;9.53;;
2766;SDS011;1391;46.742;11.636;2022-10-16T00:11:19;22.60;;;10.67;;
2766;SDS011;1391;46.742;11.636;2022-10-16T00:13:49;17.27;;;10.93;;
2766;SDS011;1391;46.742;11.636;2022-10-16T00:16:21;16.17;;;10.60;;
2766;SDS011;1391;46.742;11.636;2022-10-16T00:18:48;23.43;;;11.37;;
2766;SDS011;1391;46.742;11.636;2022-10-16T00:21:18;15.33;;;10.10;;
2766;SDS011;1391;46.742;11.636;2022-10-16T00:23:49;16.70;;;10.53;;
2766;SDS011;1391;46.742;11.636;2022-10-16T00:26:18;26.00;;;9.73;;
2766;SDS011;1391;46.742;11.636;2022-10-16T00:28:46;14.03;;;9.73;;
2766;SDS011;1391;46.742;11.636;2022-10-16T00:31:14;17.73;;;9.87;;
2766;SDS011;1391;46.742;11.636;2022-10-16T00:33:43;14.73;;;9.93;;
2766;SDS011;1391;46.742;11.636;2022-10-16T00:36:11;14.17;;;11.10;;
2766;SDS011;1391;46.742;11.636;2022-10-16T00:38:41;16.77;;;9.70;;
2766;SDS011;1391;46.742;11.636;2022-10-16T00:41:10;15.73;;;9.60;;
2766;SDS011;1391;46.742;11.636;2022-10-16T00:43:42;12.77;;;9.10;;
2766;SDS011;1391;46.742;11.636;2022-10-16T00:46:14;12.30;;;9.30;;
2766;SDS011;1391;46.742;11.636;2022-10-16T00:48:45;13.07;;;8.93;;
2766;SDS011;1391;46.742;11.636;2022-10-16T00:51:21;21.33;;;10.27;;
2766;SDS011;1391;46.742;11.636;2022-10-16T00:53:54;16.10;;;11.03;;
2766;SDS011;1391;46.742;11.636;2022-10-16T00:56:22;16.03;;;9.77;;
2766;SDS011;1391;46.742;11.636;2022-10-16T00:58:50;16.13;;;11.20;;
2766;SDS011;1391;46.742;11.636;2022-10-16T01:01:18;17.67;;;11.20;;
2766;SDS011;1391;46.742;11.636;2022-10-16T01:03:45;18.40;;;11.20;;
2766;SDS011;1391;46.742;11.636;2022-10-16T01:06:19;18.83;;;11.63;;
2766;SDS011;1391;46.742;11.636;2022-10-16T01:08:56;20.43;;;11.60;;
2766;SDS011;1391;46.742;11.636;2022-10-16T01:11:49;20.00;;;10.50;;
2766;SDS011;1391;46.742;11.636;2022-10-16T01:14:26;19.67;;;11.03;;
2766;SDS011;1391;46.742;11.636;2022-10-16T01:17:01;16.70;;;11.03;;
2766;SDS011;1391;46.742;11.636;2022-10-16T01:19:44;19.73;;;10.40;;
2766;SDS011;1391;46.742;11.636;2022-10-16T01:22:30;19.93;;;10.23;;
2766;SDS011;1391;46.742;11.636;2022-10-16T01:25:09;14.00;;;10.13;;
2766;SDS011;1391;46.742;11.636;2022-10-16T01:27:47;14.43;;;9.40;;
2766;SDS011;1391;46.742;11.636;2022-10-16T01:30:15;17.47;;;10.03;;
2766;SDS011;1391;46.742;11.636;2022-10-16T01:32:49;15.27;;;9.57;;
2766;SDS011;1391;46.742;11.636;2022-10-16T01:35:22;16.10;;;10.00;;
2766;SDS011;1391;46.742;11.636;2022-10-16T01:37:53;15.30;;;10.20;;
2766;SDS011;1391;46.742;11.636;2022-10-16T01:40:26;12.63;;;9.57;;
2766;SDS011;1391;46.742;11.636;2022-10-16T01:42:57;17.70;;;10.63;;
2766;SDS011;1391;46.742;11.636;2022-10-16T01:45:29;15.57;;;9.87;;
2766;SDS011;1391;46.742;11.636;2022-10-16T01:48:00;14.50;;;9.83;;
2766;SDS011;1391;46.742;11.636;2022-10-16T01:50:31;14.93;;;10.43;;
2766;SDS011;1391;46.742;11.636;2022-10-16T01:53:02;14.73;;;10.20;;
2766;SDS011;1391;46.742;11.636;2022-10-16T01:55:32;13.47;;;10.27;;
2766;SDS011;1391;46.742;11.636;2022-10-16T01:58:05;16.90;;;10.60;;
2766;SDS011;1391;46.742;11.636;2022-10-16T02:00:36;19.47;;;9.83;;
2766;SDS011;1391;46.742;11.636;2022-10-16T02:03:05;16.83;;;10.03;;
2766;SDS011;1391;46.742;11.636;2022-10-16T02:05:36;13.33;;;9.13;;
2766;SDS011;1391;46.742;11.636;2022-10-16T02:08:07;13.93;;;9.80;;
2766;SDS011;1391;46.742;11.636;2022-10-16T02:10:35;15.60;;;10.83;;
2766;SDS011;1391;46.742;11.636;2022-10-16T02:13:06;21.27;;;9.43;;
2766;SDS011;1391;46.742;11.636;2022-10-16T02:15:38;12.83;;;8.87;;
2766;SDS011;1391;46.742;11.636;2022-10-16T02:18:05;15.63;;;9.63;;
2766;SDS011;1391;46.742;11.636;2022-10-16T02:20:37;14.20;;;9.33;;
2766;SDS011;1391;46.742;11.636;2022-10-16T02:23:12;14.13;;;9.43;;
2766;SDS011;1391;46.742;11.636;2022-10-16T02:25:48;13.50;;;9.80;;
2766;SDS011;1391;46.742;11.636;2022-10-16T02:28:22;14.03;;;9.43;;
2766;SDS011;1391;46.742;11.636;2022-10-16T02:30:56;15.83;;;10.23;;
2766;SDS011;1391;46.742;11.636;2022-10-16T02:33:27;17.83;;;10.30;;
2766;SDS011;1391;46.742;11.636;2022-10-16T02:35:56;15.50;;;10.50;;
2766;SDS011;1391;46.742;11.636;2022-10-16T02:38:25;12.93;;;9.87;;
2766;SDS011;1391;46.742;11.636;2022-10-16T02:40:52;18.00;;;10.03;;
2766;SDS011;1391;46.742;11.636;2022-10-16T02:43:22;16.30;;;10.20;;
2766;SDS011;1391;46.742;11.636;2022-10-16T02:45:51;16.63;;;10.70;;
2766;SDS011;1391;46.742;11.636;2022-10-16T02:48:19;19.17;;;10.70;;
2766;SDS011;1391;46.742;11.636;2022-10-16T02:50:46;15.37;;;10.90;;
2766;SDS011;1391;46.742;11.636;2022-10-16T02:53:14;15.30;;;10.90;;
2766;SDS011;1391;46.742;11.636;2022-10-16T02:55:41;18.30;;;10.23;;
2766;SDS011;1391;46.742;11.636;2022-10-16T02:58:08;18.33;;;11.07;;
2766;SDS011;1391;46.742;11.636;2022-10-16T03:00:37;18.40;;;10.10;;
2766;SDS011;1391;46.742;11.636;2022-10-16T03:03:04;15.77;;;10.63;;
2766;SDS011;1391;46.742;11.636;2022-10-16T03:05:32;15.43;;;10.20;;
2766;SDS011;1391;46.742;11.636;2022-10-16T03:07:59;15.27;;;10.70;;
2766;SDS011;1391;46.742;11.636;2022-10-16T03:10:27;17.40;;;10.27;;
2766;SDS011;1391;46.742;11.636;2022-10-16T03:12:55;14.70;;;9.73;;
2766;SDS011;1391;46.742;11.636;2022-10-16T03:15:22;14.87;;;9.53;;
2766;SDS011;1391;46.742;11.636;2022-10-16T03:17:52;14.33;;;10.37;;
2766;SDS011;1391;46.742;11.636;2022-10-16T03:20:19;27.53;;;11.67;;
2766;SDS011;1391;46.742;11.636;2022-10-16T03:22:47;18.53;;;10.60;;
2766;SDS011;1391;46.742;11.636;2022-10-16T03:25:14;32.13;;;9.77;;
2766;SDS011;1391;46.742;11.636;2022-10-16T03:27:42;23.83;;;10.00;;
2766;SDS011;1391;46.742;11.636;2022-10-16T03:30:09;24.67;;;10.77;;
2766;SDS011;1391;46.742;11.636;2022-10-16T03:32:38;19.63;;;10.67;;
2766;SDS011;1391;46.742;11.636;2022-10-16T03:35:07;17.77;;;10.40;;
2766;SDS011;1391;46.742;11.636;2022-10-16T03:37:35;17.10;;;10.30;;
2766;SDS011;1391;46.742;11.636;2022-10-16T03:40:03;16.27;;;10.30;;
2766;SDS011;1391;46.742;11.636;2022-10-16T03:42:32;22.70;;;10.17;;
2766;SDS011;1391;46.742;11.636;2022-10-16T03:44:59;16.13;;;10.63;;
2766;SDS011;1391;46.742;11.636;2022-10-16T03:47:27;17.40;;;10.93;;
2766;SDS011;1391;46.742;11.636;2022-10-16T03:49:54;19.63;;;10.97;;
2766;SDS011;1391;46.742;11.636;2022-10-16T03:52:23;14.10;;;9.63;;
2766;SDS011;1391;46.742;11.636;2022-10-16T03:54:50;15.03;;;10.27;;
2766;SDS011;1391;46.742;11.636;2022-10-16T03:57:18;16.07;;;10.30;;
2766;SDS011;1391;46.742;11.636;2022-10-16T03:59:46;17.30;;;10.10;;
2766;SDS011;1391;46.742;11.636;2022-10-16T04:02:14;16.37;;;11.00;;
2766;SDS011;1391;46.742;11.636;2022-10-16T04:04:45;13.17;;;10.40;;
2766;SDS011;1391;46.742;11.636;2022-10-16T04:07:13;16.53;;;10.13;;
2766;SDS011;1391;46.742;11.636;2022-10-16T04:09:42;20.97;;;10.60;;
2766;SDS011;1391;46.742;11.636;2022-10-16T04:12:09;17.67;;;9.97;;
2766;SDS011;1391;46.742;11.636;2022-10-16T04:14:36;24.43;;;9.37;;
2766;SDS011;1391;46.742;11.636;2022-10-16T04:17:04;16.87;;;9.93;;
2766;SDS011;1391;46.742;11.636;2022-10-16T04:19:31;16.87;;;9.97;;
2766;SDS011;1391;46.742;11.636;2022-10-16T04:21:59;16.13;;;10.17;;
2766;SDS011;1391;46.742;11.636;2022-10-16T04:24:26;18.17;;;10.40;;
2766;SDS011;1391;46.742;11.636;2022-10-16T04:26:55;24.37;;;10.53;;
2766;SDS011;1391;46.742;11.636;2022-10-16T04:29:22;14.50;;;9.93;;
2766;SDS011;1391;46.742;11.636;2022-10-16T04:31:50;15.13;;;9.73;;
2766;SDS011;1391;46.742;11.636;2022-10-16T04:34:18;14.37;;;9.87;;
2766;SDS011;1391;46.742;11.636;2022-10-16T04:36:46;15.73;;;9.03;;
2766;SDS011;1391;46.742;11.636;2022-10-16T04:39:15;17.33;;;8.70;;
2766;SDS011;1391;46.742;11.636;2022-10-16T04:41:43;16.93;;;9.60;;
2766;SDS011;1391;46.742;11.636;2022-10-16T04:44:12;17.50;;;8.77;;
2766;SDS011;1391;46.742;11.636;2022-10-16T04:46:39;16.63;;;9.60;;
2766;SDS011;1391;46.742;11.636;2022-10-16T04:49:07;13.30;;;9.00;;
2766;SDS011;1391;46.742;11.636;2022-10-16T04:51:34;17.40;;;9.50;;
2766;SDS011;1391;46.742;11.636;2022-10-16T04:54:01;12.13;;;8.63;;
2766;SDS011;1391;46.742;11.636;2022-10-16T04:56:28;14.23;;;9.70;;
2766;SDS011;1391;46.742;11.636;2022-10-16T04:58:56;15.20;;;8.93;;
2766;SDS011;1391;46.742;11.636;2022-10-16T05:01:25;18.57;;;10.03;;
2766;SDS011;1391;46.742;11.636;2022-10-16T05:03:52;12.67;;;9.73;;
2766;SDS011;1391;46.742;11.636;2022-10-16T05:06:19;15.33;;;10.10;;
2766;SDS011;1391;46.742;11.636;2022-10-16T05:08:46;15.73;;;9.13;;
2766;SDS011;1391;46.742;11.636;2022-10-16T05:11:14;16.90;;;10.10;;
2766;SDS011;1391;46.742;11.636;2022-10-16T05:13:42;14.13;;;9.70;;
2766;SDS011;1391;46.742;11.636;2022-10-16T05:16:09;15.83;;;10.13;;
2766;SDS011;1391;46.742;11.636;2022-10-16T05:18:39;14.00;;;9.50;;
2766;SDS011;1391;46.742;11.636;2022-10-16T05:21:06;16.63;;;9.37;;
2766;SDS011;1391;46.742;11.636;2022-10-16T05:23:34;16.53;;;9.00;;
2766;SDS011;1391;46.742;11.636;2022-10-16T05:26:01;12.80;;;9.67;;
2766;SDS011;1391;46.742;11.636;2022-10-16T05:28:29;14.77;;;9.00;;
2766;SDS011;1391;46.742;11.636;2022-10-16T05:30:57;18.13;;;9.37;;
2766;SDS011;1391;46.742;11.636;2022-10-16T05:33:26;17.43;;;8.83;;
2766;SDS011;1391;46.742;11.636;2022-10-16T05:35:54;16.60;;;9.20;;
2766;SDS011;1391;46.742;11.636;2022-10-16T05:38:22;15.23;;;9.30;;
2766;SDS011;1391;46.742;11.636;2022-10-16T05:40:52;13.00;;;9.20;;
2766;SDS011;1391;46.742;11.636;2022-10-16T05:43:20;11.27;;;8.50;;
2766;SDS011;1391;46.742;11.636;2022-10-16T05:45:53;14.03;;;8.60;;
2766;SDS011;1391;46.742;11.636;2022-10-16T05:48:21;18.80;;;9.67;;
2766;SDS011;1391;46.742;11.636;2022-10-16T05:50:57;19.53;;;9.23;;
2766;SDS011;1391;46.742;11.636;2022-10-16T05:53:26;13.33;;;9.03;;
2766;SDS011;1391;46.742;11.636;2022-10-16T05:55:55;12.43;;;8.47;;
2766;SDS011;1391;46.742;11.636;2022-10-16T05:58:24;13.73;;;8.93;;
2766;SDS011;1391;46.742;11.636;2022-10-16T06:00:55;12.50;;;9.53;;
2766;SDS011;1391;46.742;11.636;2022-10-16T06:03:26;13.17;;;8.93;;
2766;SDS011;1391;46.742;11.636;2022-10-16T06:05:54;16.50;;;9.20;;
2766;SDS011;1391;46.742;11.636;2022-10-16T06:08:23;13.77;;;8.63;;
2766;SDS011;1391;46.742;11.636;2022-10-16T06:10:59;13.57;;;9.10;;
2766;SDS011;1391;46.742;11.636;2022-10-16T06:13:28;14.30;;;8.97;;
2766;SDS011;1391;46.742;11.636;2022-10-16T06:15:56;13.17;;;9.00;;
2766;SDS011;1391;46.742;11.636;2022-10-16T06:18:25;19.73;;;8.87;;
2766;SDS011;1391;46.742;11.636;2022-10-16T06:20:54;17.37;;;9.10;;
2766;SDS011;1391;46.742;11.636;2022-10-16T06:23:24;13.77;;;9.30;;
2766;SDS011;1391;46.742;11.636;2022-10-16T06:25:52;13.73;;;9.10;;
2766;SDS011;1391;46.742;11.636;2022-10-16T06:28:19;12.87;;;9.23;;
2766;SDS011;1391;46.742;11.636;2022-10-16T06:30:46;17.67;;;10.30;;
2766;SDS011;1391;46.742;11.636;2022-10-16T06:33:14;14.40;;;9.67;;
2766;SDS011;1391;46.742;11.636;2022-10-16T06:35:42;14.07;;;9.80;;
2766;SDS011;1391;46.742;11.636;2022-10-16T06:38:11;14.77;;;9.80;;
2766;SDS011;1391;46.742;11.636;2022-10-16T06:40:38;14.53;;;8.63;;
2766;SDS011;1391;46.742;11.636;2022-10-16T06:43:06;15.90;;;10.10;;
2766;SDS011;1391;46.742;11.636;2022-10-16T06:45:34;20.10;;;9.50;;
2766;SDS011;1391;46.742;11.636;2022-10-16T06:48:01;15.97;;;10.07;;
2766;SDS011;1391;46.742;11.636;2022-10-16T06:50:29;13.37;;;10.50;;
2766;SDS011;1391;46.742;11.636;2022-10-16T06:52:56;16.63;;;12.27;;
2766;SDS011;1391;46.742;11.636;2022-10-16T06:55:25;15.07;;;12.37;;
2766;SDS011;1391;46.742;11.636;2022-10-16T06:57:53;21.67;;;12.27;;
2766;SDS011;1391;46.742;11.636;2022-10-16T07:00:21;17.90;;;11.33;;
2766;SDS011;1391;46.742;11.636;2022-10-16T07:02:48;19.77;;;11.97;;
2766;SDS011;1391;46.742;11.636;2022-10-16T07:05:16;17.53;;;11.33;;
2766;SDS011;1391;46.742;11.636;2022-10-16T07:07:44;15.43;;;11.67;;
2766;SDS011;1391;46.742;11.636;2022-10-16T07:10:11;17.97;;;11.20;;
2766;SDS011;1391;46.742;11.636;2022-10-16T07:12:40;14.60;;;10.63;;
2766;SDS011;1391;46.742;11.636;2022-10-16T07:15:10;20.57;;;11.00;;
2766;SDS011;1391;46.742;11.636;2022-10-16T07:17:37;18.50;;;11.87;;
2766;SDS011;1391;46.742;11.636;2022-10-16T07:20:05;16.13;;;10.77;;
2766;SDS011;1391;46.742;11.636;2022-10-16T07:22:33;18.57;;;10.67;;
2766;SDS011;1391;46.742;11.636;2022-10-16T07:25:00;16.17;;;10.50;;
2766;SDS011;1391;46.742;11.636;2022-10-16T07:27:28;14.63;;;11.30;;
2766;SDS011;1391;46.742;11.636;2022-10-16T07:29:57;18.73;;;9.90;;
2766;SDS011;1391;46.742;11.636;2022-10-16T07:32:24;22.87;;;10.33;;
2766;SDS011;1391;46.742;11.636;2022-10-16T07:34:51;14.70;;;10.43;;
2766;SDS011;1391;46.742;11.636;2022-10-16T07:37:20;24.00;;;10.97;;
2766;SDS011;1391;46.742;11.636;2022-10-16T07:39:48;13.47;;;9.50;;
2766;SDS011;1391;46.742;11.636;2022-10-16T07:42:15;13.60;;;10.33;;
2766;SDS011;1391;46.742;11.636;2022-10-16T07:44:43;12.60;;;9.27;;
2766;SDS011;1391;46.742;11.636;2022-10-16T07:47:11;15.83;;;10.60;;
2766;SDS011;1391;46.742;11.636;2022-10-16T07:49:39;15.70;;;9.97;;
2766;SDS011;1391;46.742;11.636;2022-10-16T07:52:06;12.47;;;9.77;;
2766;SDS011;1391;46.742;11.636;2022-10-16T07:54:34;15.53;;;9.43;;
2766;SDS011;1391;46.742;11.636;2022-10-16T07:57:01;18.10;;;9.87;;
2766;SDS011;1391;46.742;11.636;2022-10-16T07:59:29;16.83;;;10.07;;
2766;SDS011;1391;46.742;11.636;2022-10-16T08:01:56;15.43;;;11.60;;
2766;SDS011;1391;46.742;11.636;2022-10-16T08:04:25;17.40;;;12.43;;
2766;SDS011;1391;46.742;11.636;2022-10-16T08:06:52;16.63;;;11.27;;
2766;SDS011;1391;46.742;11.636;2022-10-16T08:09:19;17.47;;;10.70;;
2766;SDS011;1391;46.742;11.636;2022-10-16T08:11:47;18.17;;;10.60;;
2766;SDS011;1391;46.742;11.636;2022-10-16T08:14:14;13.83;;;10.47;;
2766;SDS011;1391;46.742;11.636;2022-10-16T08:16:41;15.07;;;9.90;;
2766;SDS011;1391;46.742;11.636;2022-10-16T08:19:09;14.83;;;9.73;;
2766;SDS011;1391;46.742;11.636;2022-10-16T08:21:38;13.73;;;10.30;;
2766;SDS011;1391;46.742;11.636;2022-10-16T08:24:05;15.90;;;10.17;;
2766;SDS011;1391;46.742;11.636;2022-10-16T08:26:33;18.50;;;10.60;;
2766;SDS011;1391;46.742;11.636;2022-10-16T08:29:01;13.27;;;10.20;;
2766;SDS011;1391;46.742;11.636;2022-10-16T08:31:28;19.13;;;10.60;;
2766;SDS011;1391;46.742;11.636;2022-10-16T08:33:55;14.53;;;10.00;;
2766;SDS011;1391;46.742;11.636;2022-10-16T08:36:23;17.27;;;10.93;;
2766;SDS011;1391;46.742;11.636;2022-10-16T08:38:52;14.40;;;10.00;;
2766;SDS011;1391;46.742;11.636;2022-10-16T08:41:24;20.80;;;10.57;;
2766;SDS011;1391;46.742;11.636;2022-10-16T08:44:46;19.63;;;10.30;;
2766;SDS011;1391;46.742;11.636;2022-10-16T08:47:47;14.50;;;9.97;;
2766;SDS011;1391;46.742;11.636;2022-10-16T08:50:21;12.73;;;8.63;;
2766;SDS011;1391;46.742;11.636;2022-10-16T08:52:53;12.97;;;9.10;;
2766;SDS011;1391;46.742;11.636;2022-10-16T08:55:30;13.30;;;8.83;;
2766;SDS011;1391;46.742;11.636;2022-10-16T08:58:07;17.03;;;8.90;;
2766;SDS011;1391;46.742;11.636;2022-10-16T09:00:39;12.47;;;8.77;;
2766;SDS011;1391;46.742;11.636;2022-10-16T09:03:11;16.17;;;8.93;;
2766;SDS011;1391;46.742;11.636;2022-10-16T09:05:57;11.73;;;8.43;;
2766;SDS011;1391;46.742;11.636;2022-10-16T09:08:39;13.70;;;8.57;;
2766;SDS011;1391;46.742;11.636;2022-10-16T09:11:21;11.77;;;8.03;;
2766;SDS011;1391;46.742;11.636;2022-10-16T09:14:01;12.50;;;8.30;;
2766;SDS011;1391;46.742;11.636;2022-10-16T09:16:46;13.20;;;8.57;;
2766;SDS011;1391;46.742;11.636;2022-10-16T09:19:20;11.97;;;8.23;;
2766;SDS011;1391;46.742;11.636;2022-10-16T09:21:54;11.10;;;7.83;;
2766;SDS011;1391;46.742;11.636;2022-10-16T09:24:25;12.50;;;7.73;;
2766;SDS011;1391;46.742;11.636;2022-10-16T09:26:55;9.77;;;8.07;;
2766;SDS011;1391;46.742;11.636;2022-10-16T09:29:22;9.50;;;7.13;;
2766;SDS011;1391;46.742;11.636;2022-10-16T09:31:50;11.80;;;7.33;;
2766;SDS011;1391;46.742;11.636;2022-10-16T09:34:21;10.93;;;8.03;;
2766;SDS011;1391;46.742;11.636;2022-10-16T09:36:59;12.93;;;7.77;;
2766;SDS011;1391;46.742;11.636;2022-10-16T09:39:30;12.53;;;8.80;;
2766;SDS011;1391;46.742;11.636;2022-10-16T09:42:11;9.97;;;8.37;;
2766;SDS011;1391;46.742;11.636;2022-10-16T09:44:46;9.67;;;8.00;;
2766;SDS011;1391;46.742;11.636;2022-10-16T09:47:16;13.67;;;8.17;;
2766;SDS011;1391;46.742;11.636;2022-10-16T09:49:51;9.67;;;7.80;;
2766;SDS011;1391;46.742;11.636;2022-10-16T09:52:20;9.27;;;7.77;;
2766;SDS011;1391;46.742;11.636;2022-10-16T09:54:49;10.87;;;8.07;;
2766;SDS011;1391;46.742;11.636;2022-10-16T09:57:20;8.47;;;7.20;;
2766;SDS011;1391;46.742;11.636;2022-10-16T09:59:49;9.40;;;7.40;;
2766;SDS011;1391;46.742;11.636;2022-10-16T10:02:19;11.13;;;7.40;;
2766;SDS011;1391;46.742;11.636;2022-10-16T10:04:54;12.37;;;7.13;;
2766;SDS011;1391;46.742;11.636;2022-10-16T10:07:23;10.23;;;7.77;;
2766;SDS011;1391;46.742;11.636;2022-10-16T10:09:53;8.20;;;6.93;;
2766;SDS011;1391;46.742;11.636;2022-10-16T10:12:24;8.47;;;7.03;;
2766;SDS011;1391;46.742;11.636;2022-10-16T10:14:54;9.23;;;6.60;;
2766;SDS011;1391;46.742;11.636;2022-10-16T10:17:24;12.10;;;7.23;;
2766;SDS011;1391;46.742;11.636;2022-10-16T10:19:54;9.30;;;6.63;;
2766;SDS011;1391;46.742;11.636;2022-10-16T10:22:29;8.13;;;5.30;;
2766;SDS011;1391;46.742;11.636;2022-10-16T10:28:20;7.70;;;5.70;;
2766;SDS011;1391;46.742;11.636;2022-10-16T10:31:01;8.60;;;5.73;;
2766;SDS011;1391;46.742;11.636;2022-10-16T10:33:37;8.53;;;6.17;;
2766;SDS011;1391;46.742;11.636;2022-10-16T10:36:16;8.60;;;6.27;;
2766;SDS011;1391;46.742;11.636;2022-10-16T10:39:02;10.87;;;7.33;;
2766;SDS011;1391;46.742;11.636;2022-10-16T10:44:36;7.07;;;5.87;;
2766;SDS011;1391;46.742;11.636;2022-10-16T10:47:22;7.67;;;5.67;;
2766;SDS011;1391;46.742;11.636;2022-10-16T10:50:12;7.73;;;5.50;;
2766;SDS011;1391;46.742;11.636;2022-10-16T10:52:51;6.23;;;5.23;;
2766;SDS011;1391;46.742;11.636;2022-10-16T10:55:28;5.87;;;5.13;;
2766;SDS011;1391;46.742;11.636;2022-10-16T10:58:10;5.93;;;5.27;;
2766;SDS011;1391;46.742;11.636;2022-10-16T11:01:08;7.50;;;5.47;;
2766;SDS011;1391;46.742;11.636;2022-10-16T11:06:58;7.17;;;5.33;;
2766;SDS011;1391;46.742;11.636;2022-10-16T11:09:30;9.10;;;6.00;;
2766;SDS011;1391;46.742;11.636;2022-10-16T11:12:04;8.23;;;5.40;;
2766;SDS011;1391;46.742;11.636;2022-10-16T11:14:38;8.47;;;5.17;;
2766;SDS011;1391;46.742;11.636;2022-10-16T11:17:13;6.27;;;5.00;;
2766;SDS011;1391;46.742;11.636;2022-10-16T11:19:46;8.30;;;5.10;;
2766;SDS011;1391;46.742;11.636;2022-10-16T11:22:19;10.37;;;5.23;;
2766;SDS011;1391;46.742;11.636;2022-10-16T11:24:53;7.63;;;5.63;;
2766;SDS011;1391;46.742;11.636;2022-10-16T11:27:34;8.33;;;5.30;;
2766;SDS011;1391;46.742;11.636;2022-10-16T11:30:13;6.30;;;4.77;;
2766;SDS011;1391;46.742;11.636;2022-10-16T11:32:50;9.20;;;4.83;;
2766;SDS011;1391;46.742;11.636;2022-10-16T11:35:33;6.20;;;4.97;;
2766;SDS011;1391;46.742;11.636;2022-10-16T11:38:10;8.10;;;6.17;;
2766;SDS011;1391;46.742;11.636;2022-10-16T11:40:47;6.63;;;5.93;;
2766;SDS011;1391;46.742;11.636;2022-10-16T11:43:20;10.70;;;6.53;;
2766;SDS011;1391;46.742;11.636;2022-10-16T11:45:53;10.40;;;6.00;;
2766;SDS011;1391;46.742;11.636;2022-10-16T11:48:27;9.13;;;5.57;;
2766;SDS011;1391;46.742;11.636;2022-10-16T11:51:03;5.73;;;5.13;;
2766;SDS011;1391;46.742;11.636;2022-10-16T11:53:39;5.07;;;4.57;;
2766;SDS011;1391;46.742;11.636;2022-10-16T11:56:15;6.13;;;4.80;;
2766;SDS011;1391;46.742;11.636;2022-10-16T11:58:50;9.73;;;5.10;;
2766;SDS011;1391;46.742;11.636;2022-10-16T12:01:26;12.67;;;5.40;;
2766;SDS011;1391;46.742;11.636;2022-10-16T12:04:04;7.20;;;5.00;;
2766;SDS011;1391;46.742;11.636;2022-10-16T12:06:43;7.30;;;5.03;;
2766;SDS011;1391;46.742;11.636;2022-10-16T12:09:15;6.10;;;5.27;;
2766;SDS011;1391;46.742;11.636;2022-10-16T12:11:48;6.30;;;4.90;;
2766;SDS011;1391;46.742;11.636;2022-10-16T12:14:20;7.10;;;5.07;;
2766;SDS011;1391;46.742;11.636;2022-10-16T12:17:01;6.73;;;5.23;;
2766;SDS011;1391;46.742;11.636;2022-10-16T12:19:33;6.73;;;4.87;;
2766;SDS011;1391;46.742;11.636;2022-10-16T12:22:00;5.87;;;4.30;;
2766;SDS011;1391;46.742;11.636;2022-10-16T12:24:31;6.00;;;4.63;;
2766;SDS011;1391;46.742;11.636;2022-10-16T12:27:02;8.00;;;5.17;;
2766;SDS011;1391;46.742;11.636;2022-10-16T12:29:34;9.83;;;5.10;;
2766;SDS011;1391;46.742;11.636;2022-10-16T12:32:04;6.37;;;5.17;;
2766;SDS011;1391;46.742;11.636;2022-10-16T12:34:50;9.67;;;5.13;;
2766;SDS011;1391;46.742;11.636;2022-10-16T12:37:20;6.37;;;5.20;;
2766;SDS011;1391;46.742;11.636;2022-10-16T12:39:51;6.87;;;5.77;;
2766;SDS011;1391;46.742;11.636;2022-10-16T12:42:23;14.87;;;5.30;;
2766;SDS011;1391;46.742;11.636;2022-10-16T12:45:12;7.17;;;5.27;;
2766;SDS011;1391;46.742;11.636;2022-10-16T12:47:53;13.10;;;5.17;;
2766;SDS011;1391;46.742;11.636;2022-10-16T12:50:29;5.77;;;4.80;;
2766;SDS011;1391;46.742;11.636;2022-10-16T12:53:02;5.20;;;4.53;;
2766;SDS011;1391;46.742;11.636;2022-10-16T12:55:48;4.80;;;3.87;;
2766;SDS011;1391;46.742;11.636;2022-10-16T13:01:36;5.57;;;4.90;;
2766;SDS011;1391;46.742;11.636;2022-10-16T13:04:22;7.33;;;5.30;;
2766;SDS011;1391;46.742;11.636;2022-10-16T13:07:51;7.40;;;5.07;;
2766;SDS011;1391;46.742;11.636;2022-10-16T13:10:28;7.00;;;5.50;;
2766;SDS011;1391;46.742;11.636;2022-10-16T13:13:09;10.70;;;5.30;;
2766;SDS011;1391;46.742;11.636;2022-10-16T13:15:52;5.90;;;4.83;;
2766;SDS011;1391;46.742;11.636;2022-10-16T13:18:33;14.43;;;4.93;;
2766;SDS011;1391;46.742;11.636;2022-10-16T13:21:16;5.67;;;4.80;;
2766;SDS011;1391;46.742;11.636;2022-10-16T13:23:59;8.07;;;4.93;;
2766;SDS011;1391;46.742;11.636;2022-10-16T13:26:40;8.57;;;4.90;;
2766;SDS011;1391;46.742;11.636;2022-10-16T13:29:12;5.43;;;4.70;;
2766;SDS011;1391;46.742;11.636;2022-10-16T13:31:40;7.70;;;5.27;;
2766;SDS011;1391;46.742;11.636;2022-10-16T13:34:11;4.93;;;4.43;;
2766;SDS011;1391;46.742;11.636;2022-10-16T13:36:44;6.30;;;4.60;;
2766;SDS011;1391;46.742;11.636;2022-10-16T13:39:21;7.83;;;4.43;;
2766;SDS011;1391;46.742;11.636;2022-10-16T13:42:03;10.93;;;4.70;;
2766;SDS011;1391;46.742;11.636;2022-10-16T13:44:39;7.77;;;5.43;;
2766;SDS011;1391;46.742;11.636;2022-10-16T13:47:14;8.63;;;5.30;;
2766;SDS011;1391;46.742;11.636;2022-10-16T13:49:44;8.33;;;5.80;;
2766;SDS011;1391;46.742;11.636;2022-10-16T13:52:16;7.37;;;5.20;;
2766;SDS011;1391;46.742;11.636;2022-10-16T13:54:47;7.50;;;5.10;;
2766;SDS011;1391;46.742;11.636;2022-10-16T13:57:14;6.40;;;4.87;;
2766;SDS011;1391;46.742;11.636;2022-10-16T13:59:43;6.40;;;5.00;;
2766;SDS011;1391;46.742;11.636;2022-10-16T14:02:15;5.57;;;4.63;;
2766;SDS011;1391;46.742;11.636;2022-10-16T14:04:50;8.23;;;4.50;;
2766;SDS011;1391;46.742;11.636;2022-10-16T14:07:20;8.63;;;5.50;;
2766;SDS011;1391;46.742;11.636;2022-10-16T14:09:53;5.57;;;4.90;;
2766;SDS011;1391;46.742;11.636;2022-10-16T14:12:21;5.23;;;4.70;;
2766;SDS011;1391;46.742;11.636;2022-10-16T14:14:51;5.70;;;4.60;;
2766;SDS011;1391;46.742;11.636;2022-10-16T14:17:22;5.67;;;4.70;;
2766;SDS011;1391;46.742;11.636;2022-10-16T14:19:53;5.83;;;4.93;;
2766;SDS011;1391;46.742;11.636;2022-10-16T14:22:26;7.10;;;5.20;;
2766;SDS011;1391;46.742;11.636;2022-10-16T14:24:58;5.20;;;4.27;;
2766;SDS011;1391;46.742;11.636;2022-10-16T14:27:31;8.83;;;4.83;;
2766;SDS011;1391;46.742;11.636;2022-10-16T14:30:08;5.30;;;4.67;;
2766;SDS011;1391;46.742;11.636;2022-10-16T14:32:40;5.77;;;4.63;;
2766;SDS011;1391;46.742;11.636;2022-10-16T14:35:22;7.13;;;4.70;;
2766;SDS011;1391;46.742;11.636;2022-10-16T14:37:55;5.03;;;4.40;;
2766;SDS011;1391;46.742;11.636;2022-10-16T14:40:27;10.73;;;5.13;;
2766;SDS011;1391;46.742;11.636;2022-10-16T14:42:56;7.90;;;4.63;;
2766;SDS011;1391;46.742;11.636;2022-10-16T14:45:26;6.43;;;5.20;;
2766;SDS011;1391;46.742;11.636;2022-10-16T14:47:57;7.37;;;5.07;;
2766;SDS011;1391;46.742;11.636;2022-10-16T14:50:27;7.83;;;5.13;;
2766;SDS011;1391;46.742;11.636;2022-10-16T14:52:55;12.20;;;8.30;;
2766;SDS011;1391;46.742;11.636;2022-10-16T14:55:22;7.30;;;6.60;;
2766;SDS011;1391;46.742;11.636;2022-10-16T14:57:52;6.13;;;5.50;;
2766;SDS011;1391;46.742;11.636;2022-10-16T15:00:20;6.47;;;5.43;;
2766;SDS011;1391;46.742;11.636;2022-10-16T15:02:50;5.87;;;5.27;;
2766;SDS011;1391;46.742;11.636;2022-10-16T15:05:18;11.43;;;7.70;;
2766;SDS011;1391;46.742;11.636;2022-10-16T15:07:50;17.57;;;8.70;;
2766;SDS011;1391;46.742;11.636;2022-10-16T15:10:18;9.80;;;6.73;;
2766;SDS011;1391;46.742;11.636;2022-10-16T15:12:49;6.20;;;5.47;;
2766;SDS011;1391;46.742;11.636;2022-10-16T15:18:11;10.60;;;5.77;;
2766;SDS011;1391;46.742;11.636;2022-10-16T15:20:47;9.40;;;6.40;;
2766;SDS011;1391;46.742;11.636;2022-10-16T15:23:18;9.27;;;6.10;;
2766;SDS011;1391;46.742;11.636;2022-10-16T15:25:48;5.60;;;5.03;;
2766;SDS011;1391;46.742;11.636;2022-10-16T15:28:17;10.50;;;5.50;;
2766;SDS011;1391;46.742;11.636;2022-10-16T15:30:48;18.60;;;7.03;;